createdAt,value
2018-02-01T00:02:03.336Z,4.48
2018-02-01T00:04:31.805Z,4.35
2018-02-01T00:07:00.301Z,4.36
2018-02-01T00:09:28.773Z,4.41
2018-02-01T00:11:57.272Z,4.68
2018-02-01T00:14:25.740Z,4.44
2018-02-01T00:16:54.244Z,4.30
2018-02-01T00:19:22.733Z,4.24
2018-02-01T00:21:51.224Z,4.42
2018-02-01T00:24:19.713Z,4.40
2018-02-01T00:26:48.218Z,4.40
2018-02-01T00:29:16.677Z,4.47
2018-02-01T00:31:45.214Z,4.58
2018-02-01T00:34:13.651Z,4.64
2018-02-01T00:36:42.161Z,4.67
2018-02-01T00:39:10.641Z,4.43
2018-02-01T00:41:39.137Z,4.56
2018-02-01T00:44:07.633Z,4.71
2018-02-01T00:46:36.094Z,4.54
2018-02-01T00:49:04.609Z,4.29
2018-02-01T00:51:33.058Z,4.42
2018-02-01T00:54:01.553Z,4.38
2018-02-01T00:56:30.014Z,4.55
2018-02-01T00:58:58.469Z,4.62
2018-02-01T01:01:26.957Z,4.63
2018-02-01T01:03:55.410Z,4.55
2018-02-01T01:06:23.913Z,4.33
2018-02-01T01:08:52.413Z,4.44
2018-02-01T01:11:20.939Z,4.50
2018-02-01T01:13:49.430Z,4.45
2018-02-01T01:16:17.893Z,4.37
2018-02-01T01:18:46.377Z,4.41
2018-02-01T01:21:14.833Z,4.45
2018-02-01T01:23:43.345Z,4.37
2018-02-01T01:26:11.813Z,4.31
2018-02-01T01:28:40.309Z,4.19
2018-02-01T01:31:08.799Z,4.24
2018-02-01T01:33:37.282Z,4.31
2018-02-01T01:36:05.772Z,4.34
2018-02-01T01:38:34.256Z,4.27
2018-02-01T01:41:02.757Z,4.29
2018-02-01T01:43:31.206Z,4.18
2018-02-01T01:46:11.478Z,4.24
2018-02-01T01:48:39.942Z,4.19
2018-02-01T01:51:08.446Z,4.03
2018-02-01T01:53:36.910Z,4.14
2018-02-01T01:56:05.368Z,4.21
2018-02-01T01:58:33.873Z,4.21
2018-02-01T02:01:02.326Z,4.21
2018-02-01T02:03:30.824Z,4.23
2018-02-01T02:05:59.330Z,4.22
2018-02-01T02:08:27.830Z,4.10
2018-02-01T02:10:56.277Z,4.05
2018-02-01T02:13:24.766Z,4.01
2018-02-01T02:15:53.266Z,3.98
2018-02-01T02:18:21.762Z,3.89
2018-02-01T02:20:50.237Z,3.86
2018-02-01T02:23:18.742Z,3.81
2018-02-01T02:25:47.212Z,3.57
2018-02-01T02:28:15.688Z,3.60
2018-02-01T02:30:44.195Z,3.50
2018-02-01T02:33:12.707Z,3.36
2018-02-01T02:35:41.233Z,3.41
2018-02-01T02:38:09.741Z,3.44
2018-02-01T02:40:38.213Z,3.18
2018-02-01T02:43:06.709Z,3.23
2018-02-01T02:45:35.238Z,3.27
2018-02-01T02:48:03.745Z,3.42
2018-02-01T02:50:32.222Z,3.46
2018-02-01T02:53:00.716Z,3.13
2018-02-01T02:55:29.199Z,2.96
2018-02-01T02:57:57.693Z,2.98
2018-02-01T03:00:26.195Z,2.98
2018-02-01T03:02:54.678Z,3.05
2018-02-01T03:05:23.158Z,3.21
2018-02-01T03:07:51.673Z,3.21
2018-02-01T03:10:20.147Z,3.23
2018-02-01T03:12:48.602Z,3.25
2018-02-01T03:15:17.119Z,3.19
2018-02-01T03:17:45.637Z,3.14
2018-02-01T03:20:14.169Z,3.23
2018-02-01T03:22:42.658Z,3.24
2018-02-01T03:25:11.117Z,3.34
2018-02-01T03:27:39.648Z,3.32
2018-02-01T03:30:08.153Z,3.35
2018-02-01T03:32:36.657Z,3.40
2018-02-01T03:35:05.134Z,3.44
2018-02-01T03:37:33.618Z,3.50
2018-02-01T03:40:02.116Z,3.51
2018-02-01T03:42:30.610Z,3.52
2018-02-01T03:44:59.077Z,3.51
2018-02-01T03:47:27.608Z,3.49
2018-02-01T03:49:56.053Z,3.09
2018-02-01T03:52:24.519Z,3.25
2018-02-01T03:54:53.021Z,3.21
2018-02-01T03:57:21.469Z,3.04
2018-02-01T03:59:49.941Z,3.20
2018-02-01T04:02:18.430Z,3.22
2018-02-01T04:04:46.966Z,3.17
2018-02-01T04:07:15.413Z,3.19
2018-02-01T04:09:43.913Z,3.14
2018-02-01T04:12:12.386Z,3.14
2018-02-01T04:14:40.949Z,3.11
2018-02-01T04:17:09.462Z,3.08
2018-02-01T04:19:37.918Z,3.06
2018-02-01T04:22:06.412Z,3.00
2018-02-01T04:24:34.905Z,3.00
2018-02-01T04:27:03.373Z,2.97
2018-02-01T04:29:31.925Z,2.95
2018-02-01T04:32:00.446Z,2.93
2018-02-01T04:34:28.894Z,2.74
2018-02-01T04:36:57.389Z,2.83
2018-02-01T04:39:25.853Z,2.80
2018-02-01T04:41:54.373Z,2.64
2018-02-01T04:44:22.834Z,2.57
2018-02-01T04:46:51.297Z,2.58
2018-02-01T04:49:19.792Z,2.57
2018-02-01T04:51:48.271Z,2.54
2018-02-01T04:54:16.758Z,2.60
2018-02-01T04:56:45.260Z,2.62
2018-02-01T04:59:13.718Z,2.63
2018-02-01T05:01:42.234Z,2.64
2018-02-01T05:04:10.706Z,2.64
2018-02-01T05:06:39.202Z,2.62
2018-02-01T05:09:07.693Z,2.56
2018-02-01T05:11:36.201Z,2.54
2018-02-01T05:14:04.650Z,2.54
2018-02-01T05:16:33.219Z,2.38
2018-02-01T05:19:01.692Z,2.47
2018-02-01T05:21:30.165Z,2.48
2018-02-01T05:23:58.654Z,2.43
2018-02-01T05:26:27.149Z,2.44
2018-02-01T05:28:55.646Z,2.38
2018-02-01T05:31:24.105Z,2.40
2018-02-01T05:33:52.605Z,2.19
2018-02-01T05:36:21.071Z,2.37
2018-02-01T05:38:49.569Z,1.94
2018-02-01T05:41:18.033Z,2.03
2018-02-01T05:43:46.533Z,2.01
2018-02-01T05:46:15.048Z,2.01
2018-02-01T05:48:43.510Z,1.88
2018-02-01T05:51:12.041Z,1.87
2018-02-01T05:53:40.544Z,2.06
2018-02-01T05:56:09.059Z,2.18
2018-02-01T05:58:37.539Z,2.13
2018-02-01T06:01:06.002Z,2.10
2018-02-01T06:03:34.536Z,2.01
2018-02-01T06:06:03.046Z,2.23
2018-02-01T06:08:31.537Z,2.09
2018-02-01T06:10:59.997Z,2.28
2018-02-01T06:13:28.515Z,2.45
2018-02-01T06:15:56.969Z,2.35
2018-02-01T06:18:25.442Z,2.48
2018-02-01T06:20:53.953Z,2.73
2018-02-01T06:23:22.410Z,2.88
2018-02-01T06:25:50.866Z,3.02
2018-02-01T06:28:19.361Z,3.00
2018-02-01T06:30:47.871Z,3.16
2018-02-01T06:33:16.333Z,3.15
2018-02-01T06:35:44.831Z,3.29
2018-02-01T06:38:13.289Z,3.40
2018-02-01T06:40:41.765Z,3.59
2018-02-01T06:43:10.258Z,3.64
2018-02-01T06:45:38.744Z,3.73
2018-02-01T06:48:07.254Z,3.80
2018-02-01T06:50:36.498Z,3.94
2018-02-01T06:53:05.037Z,4.13
2018-02-01T06:55:33.529Z,4.20
2018-02-01T06:58:01.997Z,4.47
2018-02-01T07:03:30.865Z,4.64
2018-02-01T07:05:59.391Z,4.74
2018-02-01T07:08:27.933Z,4.91
2018-02-01T07:10:56.527Z,5.12
2018-02-01T07:13:25.106Z,5.07
2018-02-01T07:15:53.643Z,5.34
2018-02-01T07:18:22.182Z,5.31
2018-02-01T07:20:50.713Z,5.32
2018-02-01T07:23:19.248Z,5.28
2018-02-01T07:25:47.832Z,5.62
2018-02-01T07:28:18.175Z,5.68
2018-02-01T07:30:46.698Z,5.79
2018-02-01T07:33:15.171Z,5.60
2018-02-01T07:35:43.704Z,5.87
2018-02-01T07:38:12.178Z,6.09
2018-02-01T07:40:40.674Z,6.23
2018-02-01T07:43:09.243Z,6.18
2018-02-01T07:45:38.344Z,5.96
2018-02-01T07:48:06.842Z,6.33
2018-02-01T07:50:35.394Z,6.13
2018-02-01T07:53:03.908Z,6.29
2018-02-01T07:55:32.450Z,6.53
2018-02-01T07:58:00.965Z,6.52
2018-02-01T08:00:29.454Z,6.74
2018-02-01T08:02:57.949Z,6.96
2018-02-01T08:05:26.432Z,7.02
2018-02-01T08:07:54.938Z,7.18
2018-02-01T08:10:23.402Z,7.15
2018-02-01T08:12:51.932Z,6.89
2018-02-01T08:15:20.401Z,7.23
2018-02-01T08:17:48.929Z,7.37
2018-02-01T08:20:17.429Z,7.44
2018-02-01T08:22:45.962Z,7.35
2018-02-01T08:25:14.488Z,7.37
2018-02-01T08:27:42.974Z,7.41
2018-02-01T08:30:11.506Z,7.51
2018-02-01T08:32:39.973Z,7.51
2018-02-01T08:35:08.434Z,7.53
2018-02-01T08:37:36.880Z,7.65
2018-02-01T08:40:05.456Z,7.67
2018-02-01T08:42:33.977Z,7.68
2018-02-01T08:45:02.477Z,7.92
2018-02-01T08:47:30.970Z,7.68
2018-02-01T08:49:59.569Z,7.83
2018-02-01T08:52:28.044Z,8.08
2018-02-01T08:54:56.557Z,8.29
2018-02-01T08:57:25.061Z,8.33
2018-02-01T08:59:53.523Z,8.15
2018-02-01T09:02:22.041Z,8.32
2018-02-01T09:04:50.505Z,8.16
2018-02-01T09:07:19.005Z,7.98
2018-02-01T09:09:47.483Z,8.17
2018-02-01T09:12:15.998Z,8.17
2018-02-01T09:14:44.519Z,8.18
2018-02-01T09:17:13.009Z,8.45
2018-02-01T09:19:41.536Z,8.58
2018-02-01T09:22:10.084Z,8.63
2018-02-01T09:24:38.582Z,8.54
2018-02-01T09:27:07.048Z,8.80
2018-02-01T09:29:35.646Z,8.94
2018-02-01T09:32:04.117Z,8.96
2018-02-01T09:34:32.590Z,9.05
2018-02-01T09:37:01.146Z,8.80
2018-02-01T09:39:29.628Z,8.99
2018-02-01T09:41:58.138Z,8.97
2018-02-01T09:44:26.661Z,9.24
2018-02-01T09:46:55.178Z,9.26
2018-02-01T09:49:23.625Z,9.42
2018-02-01T09:51:52.144Z,9.42
2018-02-01T09:54:20.637Z,9.67
2018-02-01T09:56:49.120Z,9.54
2018-02-01T09:59:17.624Z,9.74
2018-02-01T10:01:46.133Z,9.57
2018-02-01T10:04:14.629Z,9.65
2018-02-01T10:06:43.138Z,9.85
2018-02-01T10:09:11.647Z,9.83
2018-02-01T10:11:40.130Z,9.98
2018-02-01T10:14:08.621Z,10.10
2018-02-01T10:16:37.122Z,10.15
2018-02-01T10:19:05.606Z,10.38
2018-02-01T10:21:34.117Z,10.43
2018-02-01T10:24:02.561Z,10.50
2018-02-01T10:26:31.031Z,10.38
2018-02-01T10:28:59.572Z,10.57
2018-02-01T10:31:28.059Z,10.65
2018-02-01T10:33:56.561Z,10.55
2018-02-01T10:36:25.066Z,10.79
2018-02-01T10:38:53.594Z,10.85
2018-02-01T10:41:22.092Z,10.99
2018-02-01T10:43:50.558Z,10.95
2018-02-01T10:46:19.055Z,11.11
2018-02-01T10:48:47.569Z,11.12
2018-02-01T10:51:16.086Z,11.19
2018-02-01T10:53:44.601Z,11.22
2018-02-01T10:56:17.973Z,11.26
2018-02-01T10:58:46.440Z,11.26
2018-02-01T11:01:14.937Z,11.30
2018-02-01T11:03:43.437Z,11.30
2018-02-01T11:06:11.956Z,11.43
2018-02-01T11:08:40.429Z,11.43
2018-02-01T11:11:08.885Z,11.59
2018-02-01T11:13:37.406Z,11.69
2018-02-01T11:16:06.074Z,11.67
2018-02-01T11:18:34.543Z,11.78
2018-02-01T11:21:03.012Z,11.80
2018-02-01T11:23:31.554Z,11.81
2018-02-01T11:26:00.062Z,11.90
2018-02-01T11:28:28.578Z,11.98
2018-02-01T11:30:57.082Z,12.07
2018-02-01T11:33:25.595Z,12.08
2018-02-01T11:35:54.109Z,12.06
2018-02-01T11:38:22.625Z,11.97
2018-02-01T11:40:51.161Z,12.11
2018-02-01T11:43:19.625Z,11.99
2018-02-01T11:45:48.103Z,12.07
2018-02-01T11:48:16.679Z,12.15
2018-02-01T11:50:45.149Z,12.20
2018-02-01T11:53:13.657Z,12.23
2018-02-01T11:55:42.126Z,12.29
2018-02-01T11:58:10.629Z,12.27
2018-02-01T12:00:39.110Z,12.05
2018-02-01T12:03:07.669Z,12.18
2018-02-01T12:05:36.184Z,12.31
2018-02-01T12:08:04.654Z,12.38
2018-02-01T12:10:33.709Z,12.47
2018-02-01T12:13:02.170Z,12.37
2018-02-01T12:15:30.662Z,12.43
2018-02-01T12:17:59.128Z,12.48
2018-02-01T12:20:27.624Z,12.56
2018-02-01T12:22:56.118Z,12.53
2018-02-01T12:25:25.378Z,12.59
2018-02-01T12:27:53.882Z,12.69
2018-02-01T12:30:22.405Z,12.60
2018-02-01T12:32:51.128Z,12.73
2018-02-01T12:35:20.486Z,12.72
2018-02-01T12:37:49.790Z,12.75
2018-02-01T12:40:18.241Z,12.77
2018-02-01T12:42:46.731Z,12.68
2018-02-01T12:45:15.240Z,12.69
2018-02-01T12:47:43.733Z,12.67
2018-02-01T12:50:12.213Z,12.76
2018-02-01T12:52:40.682Z,12.80
2018-02-01T12:55:09.129Z,12.80
2018-02-01T12:57:37.618Z,12.89
2018-02-01T13:00:06.051Z,12.89
2018-02-01T13:02:34.562Z,12.85
2018-02-01T13:05:03.046Z,12.70
2018-02-01T13:07:31.494Z,12.85
2018-02-01T13:09:59.986Z,12.85
2018-02-01T13:12:28.490Z,12.96
2018-02-01T13:14:56.977Z,12.95
2018-02-01T13:17:25.475Z,12.97
2018-02-01T13:19:53.930Z,12.99
2018-02-01T13:22:22.419Z,12.88
2018-02-01T13:24:50.925Z,13.03
2018-02-01T13:27:19.390Z,13.09
2018-02-01T13:29:47.916Z,13.15
2018-02-01T13:32:16.390Z,13.12
2018-02-01T13:34:44.838Z,13.19
2018-02-01T13:37:13.326Z,13.19
2018-02-01T13:39:41.832Z,13.14
2018-02-01T13:42:10.281Z,13.17
2018-02-01T13:44:38.765Z,13.13
2018-02-01T13:47:07.224Z,12.89
2018-02-01T13:49:35.705Z,12.94
2018-02-01T13:52:04.163Z,12.99
2018-02-01T13:54:32.650Z,13.08
2018-02-01T13:57:01.158Z,13.04
2018-02-01T13:59:29.606Z,13.01
2018-02-01T14:01:58.121Z,13.10
2018-02-01T14:04:26.578Z,13.07
2018-02-01T14:06:55.025Z,13.08
2018-02-01T14:09:23.513Z,13.14
2018-02-01T14:11:51.963Z,13.16
2018-02-01T14:14:20.463Z,13.08
2018-02-01T14:16:49.006Z,13.11
2018-02-01T14:19:17.462Z,13.05
2018-02-01T14:21:45.989Z,13.08
2018-02-01T14:24:14.442Z,13.05
2018-02-01T14:26:43.801Z,13.07
2018-02-01T14:29:12.260Z,13.07
2018-02-01T14:31:40.745Z,13.04
2018-02-01T14:34:09.226Z,12.98
2018-02-01T14:36:37.714Z,13.01
2018-02-01T14:39:06.230Z,13.03
2018-02-01T14:41:34.691Z,13.02
2018-02-01T14:44:03.181Z,12.87
2018-02-01T14:46:31.638Z,12.92
2018-02-01T14:49:00.129Z,12.84
2018-02-01T14:51:28.591Z,12.81
2018-02-01T14:53:58.091Z,12.76
2018-02-01T14:56:26.598Z,12.67
2018-02-01T14:58:55.085Z,12.68
2018-02-01T15:01:23.541Z,12.62
2018-02-01T15:03:52.125Z,12.51
2018-02-01T15:06:20.570Z,12.50
2018-02-01T15:08:49.067Z,12.28
2018-02-01T15:11:17.573Z,12.36
2018-02-01T15:13:46.021Z,12.37
2018-02-01T15:16:14.502Z,12.31
2018-02-01T15:18:42.998Z,12.14
2018-02-01T15:21:11.481Z,12.18
2018-02-01T15:23:39.933Z,12.06
2018-02-01T15:26:08.417Z,11.98
2018-02-01T15:28:36.901Z,11.92
2018-02-01T15:31:05.361Z,11.85
2018-02-01T15:33:33.860Z,11.77
2018-02-01T15:36:02.341Z,11.64
2018-02-01T15:38:30.829Z,11.57
2018-02-01T15:40:59.318Z,11.46
2018-02-01T15:43:27.841Z,11.41
2018-02-01T15:45:56.301Z,11.38
2018-02-01T15:48:24.785Z,11.31
2018-02-01T15:50:53.236Z,11.21
2018-02-01T15:53:21.721Z,11.10
2018-02-01T15:55:50.213Z,10.98
2018-02-01T15:58:18.693Z,10.95
2018-02-01T16:00:47.147Z,10.88
2018-02-01T16:03:15.633Z,10.79
2018-02-01T16:05:44.146Z,10.72
2018-02-01T16:08:12.589Z,10.65
2018-02-01T16:10:41.038Z,10.50
2018-02-01T16:13:09.527Z,10.45
2018-02-01T16:15:38.023Z,10.21
2018-02-01T16:18:06.621Z,10.22
2018-02-01T16:20:35.082Z,10.22
2018-02-01T16:23:03.573Z,10.19
2018-02-01T16:25:32.022Z,10.14
2018-02-01T16:28:00.520Z,10.01
2018-02-01T16:30:28.971Z,10.05
2018-02-01T16:32:57.453Z,9.99
2018-02-01T16:35:25.942Z,9.94
2018-02-01T16:37:54.386Z,9.87
2018-02-01T16:40:22.868Z,9.83
2018-02-01T16:42:51.407Z,9.74
2018-02-01T16:45:19.850Z,9.65
2018-02-01T16:47:48.325Z,9.58
2018-02-01T16:50:16.774Z,9.51
2018-02-01T16:52:45.261Z,9.44
2018-02-01T16:55:13.710Z,9.37
2018-02-01T16:57:42.149Z,9.24
2018-02-01T17:00:10.638Z,9.12
2018-02-01T17:02:39.077Z,8.82
2018-02-01T17:05:07.557Z,8.37
2018-02-01T17:07:36.002Z,8.51
2018-02-01T17:10:04.481Z,8.70
2018-02-01T17:12:32.925Z,8.74
2018-02-01T17:15:01.397Z,8.51
2018-02-01T17:17:29.873Z,8.66
2018-02-01T17:19:58.326Z,8.69
2018-02-01T17:22:26.801Z,8.67
2018-02-01T17:24:55.251Z,8.63
2018-02-01T17:27:23.711Z,8.61
2018-02-01T17:29:52.189Z,8.53
2018-02-01T17:32:20.661Z,8.48
2018-02-01T17:34:49.110Z,8.40
2018-02-01T17:37:17.589Z,8.33
2018-02-01T17:39:46.080Z,8.24
2018-02-01T17:42:14.601Z,8.26
2018-02-01T17:44:43.049Z,8.19
2018-02-01T17:47:11.533Z,8.14
2018-02-01T17:49:39.986Z,8.07
2018-02-01T17:52:08.470Z,8.01
2018-02-01T17:54:36.914Z,7.94
2018-02-01T17:57:05.390Z,7.81
2018-02-01T17:59:33.865Z,7.77
2018-02-01T18:02:02.310Z,7.68
2018-02-01T18:04:30.830Z,7.67
2018-02-01T18:06:59.314Z,7.64
2018-02-01T18:09:27.818Z,7.60
2018-02-01T18:11:56.294Z,7.52
2018-02-01T18:14:24.784Z,7.25
2018-02-01T18:16:53.226Z,7.13
2018-02-01T18:19:21.705Z,7.18
2018-02-01T18:21:50.186Z,7.23
2018-02-01T18:24:18.629Z,7.26
2018-02-01T18:26:47.110Z,7.25
2018-02-01T18:29:15.554Z,6.91
2018-02-01T18:31:44.034Z,7.05
2018-02-01T18:34:12.472Z,7.05
2018-02-01T18:36:41.945Z,7.04
2018-02-01T18:39:10.433Z,7.05
2018-02-01T18:41:38.925Z,7.06
2018-02-01T18:44:07.401Z,7.05
2018-02-01T18:46:35.908Z,6.94
2018-02-01T18:49:04.360Z,6.80
2018-02-01T18:51:32.853Z,6.87
2018-02-01T18:54:01.377Z,6.85
2018-02-01T18:56:29.853Z,6.82
2018-02-01T18:58:58.293Z,6.76
2018-02-01T19:01:26.774Z,6.69
2018-02-01T19:03:55.237Z,6.50
2018-02-01T19:06:23.713Z,6.54
2018-02-01T19:08:52.198Z,6.52
2018-02-01T19:11:20.676Z,6.48
2018-02-01T19:13:49.118Z,6.15
2018-02-01T19:16:17.611Z,6.20
2018-02-01T19:18:46.053Z,6.32
2018-02-01T19:21:14.536Z,6.31
2018-02-01T19:23:43.017Z,6.32
2018-02-01T19:26:11.497Z,6.28
2018-02-01T19:28:39.951Z,6.27
2018-02-01T19:31:08.465Z,6.26
2018-02-01T19:33:36.921Z,6.26
2018-02-01T19:36:05.405Z,6.27
2018-02-01T19:38:33.869Z,6.27
2018-02-01T19:41:02.385Z,6.28
2018-02-01T19:43:30.829Z,6.30
2018-02-01T19:45:59.329Z,6.26
2018-02-01T19:48:27.776Z,6.27
2018-02-01T19:50:56.267Z,6.23
2018-02-01T19:53:24.751Z,6.21
2018-02-01T19:55:53.208Z,6.16
2018-02-01T19:58:21.653Z,6.12
2018-02-01T20:00:50.158Z,5.97
2018-02-01T20:03:18.620Z,5.87
2018-02-01T20:05:47.106Z,5.68
2018-02-01T20:08:15.565Z,5.79
2018-02-01T20:10:44.037Z,5.69
2018-02-01T20:13:12.502Z,5.68
2018-02-01T20:15:40.969Z,5.73
2018-02-01T20:18:09.421Z,5.74
2018-02-01T20:20:37.899Z,5.73
2018-02-01T20:23:06.377Z,5.71
2018-02-01T20:25:34.883Z,5.70
2018-02-01T20:28:03.344Z,5.64
2018-02-01T20:30:31.785Z,5.63
2018-02-01T20:33:00.261Z,5.58
2018-02-01T20:35:28.737Z,5.54
2018-02-01T20:37:57.181Z,5.47
2018-02-01T20:40:25.657Z,5.49
2018-02-01T20:42:54.138Z,5.47
2018-02-01T20:45:22.603Z,5.44
2018-02-01T20:47:51.085Z,5.34
2018-02-01T20:50:19.530Z,5.09
2018-02-01T20:52:48.005Z,5.11
2018-02-01T20:55:16.513Z,5.19
2018-02-01T20:57:45.018Z,5.21
2018-02-01T21:00:13.489Z,5.20
2018-02-01T21:02:41.969Z,5.17
2018-02-01T21:05:10.463Z,5.09
2018-02-01T21:07:38.906Z,5.06
2018-02-01T21:10:07.389Z,5.01
2018-02-01T21:12:35.834Z,5.01
2018-02-01T21:15:04.352Z,4.58
2018-02-01T21:17:32.817Z,4.74
2018-02-01T21:20:01.299Z,4.85
2018-02-01T21:22:29.778Z,4.81
2018-02-01T21:24:58.232Z,4.81
2018-02-01T21:27:26.719Z,4.81
2018-02-01T21:29:55.175Z,4.80
2018-02-01T21:32:23.639Z,4.79
2018-02-01T21:34:52.107Z,4.52
2018-02-01T21:37:20.589Z,4.15
2018-02-01T21:39:49.058Z,3.85
2018-02-01T21:42:17.534Z,4.04
2018-02-01T21:44:46.009Z,4.32
2018-02-01T21:47:14.450Z,4.24
2018-02-01T21:49:42.934Z,4.42
2018-02-01T21:52:11.397Z,4.44
2018-02-01T21:54:39.889Z,4.53
2018-02-01T21:57:08.354Z,4.60
2018-02-01T21:59:36.827Z,4.60
2018-02-01T22:02:05.313Z,4.33
2018-02-01T22:04:33.921Z,4.45
2018-02-01T22:07:02.378Z,4.65
2018-02-01T22:09:30.841Z,4.80
2018-02-01T22:11:59.333Z,4.69
2018-02-01T22:14:27.806Z,4.75
2018-02-01T22:16:56.314Z,4.69
2018-02-01T22:19:24.792Z,4.69
2018-02-01T22:21:53.260Z,4.64
2018-02-01T22:24:21.756Z,4.87
2018-02-01T22:26:50.250Z,5.08
2018-02-01T22:29:18.715Z,5.20
2018-02-01T22:31:47.225Z,5.26
2018-02-01T22:34:15.668Z,5.36
2018-02-01T22:36:44.158Z,5.41
2018-02-01T22:39:12.645Z,5.42
2018-02-01T22:41:41.116Z,5.40
2018-02-01T22:44:09.617Z,5.47
2018-02-01T22:46:38.145Z,5.24
2018-02-01T22:49:06.602Z,5.18
2018-02-01T22:51:35.127Z,5.28
2018-02-01T22:54:03.634Z,5.41
2018-02-01T22:56:32.089Z,5.49
2018-02-01T22:59:01.524Z,5.55
2018-02-01T23:01:30.034Z,5.55
2018-02-01T23:03:58.569Z,5.63
2018-02-01T23:06:27.045Z,5.63
2018-02-01T23:08:55.538Z,5.65
2018-02-01T23:11:24.096Z,5.42
2018-02-01T23:13:52.612Z,5.52
2018-02-01T23:16:21.114Z,5.36
2018-02-01T23:18:49.589Z,5.42
2018-02-01T23:21:18.049Z,5.41
2018-02-01T23:23:46.553Z,5.46
2018-02-01T23:26:15.046Z,5.51
2018-02-01T23:28:43.541Z,5.47
2018-02-01T23:31:12.035Z,5.37
2018-02-01T23:33:40.565Z,5.44
2018-02-01T23:36:09.063Z,5.49
2018-02-01T23:38:37.518Z,5.50
2018-02-01T23:41:06.011Z,5.51
2018-02-01T23:43:34.502Z,5.38
2018-02-01T23:46:02.990Z,5.47
2018-02-01T23:48:31.474Z,5.43
2018-02-01T23:50:59.966Z,5.13
2018-02-01T23:53:28.510Z,5.17
2018-02-01T23:55:57.023Z,5.12
2018-02-01T23:58:25.506Z,5.25
